sensor_id;sensor_type;location;lat;lon;timestamp;P1;durP1;ratioP1;P2;durP2;ratioP2
81396;SDS011;70852;49.908;8.126;2023-09-08T00:02:25;9.57;;;4.47;;
81396;SDS011;70852;49.908;8.126;2023-09-08T00:04:52;6.82;;;3.78;;
81396;SDS011;70852;49.908;8.126;2023-09-08T00:07:20;7.28;;;3.85;;
81396;SDS011;70852;49.908;8.126;2023-09-08T00:09:45;6.97;;;4.63;;
81396;SDS011;70852;49.908;8.126;2023-09-08T00:12:13;6.78;;;3.95;;
81396;SDS011;70852;49.908;8.126;2023-09-08T00:14:38;8.07;;;4.40;;
81396;SDS011;70852;49.908;8.126;2023-09-08T00:17:06;7.03;;;3.83;;
81396;SDS011;70852;49.908;8.126;2023-09-08T00:19:31;6.72;;;4.03;;
81396;SDS011;70852;49.908;8.126;2023-09-08T00:21:59;6.93;;;4.00;;
81396;SDS011;70852;49.908;8.126;2023-09-08T00:24:30;7.60;;;4.75;;
81396;SDS011;70852;49.908;8.126;2023-09-08T00:26:55;8.05;;;3.85;;
81396;SDS011;70852;49.908;8.126;2023-09-08T00:29:20;7.15;;;3.85;;
81396;SDS011;70852;49.908;8.126;2023-09-08T00:31:46;8.27;;;4.20;;
81396;SDS011;70852;49.908;8.126;2023-09-08T00:34:14;7.97;;;4.53;;
81396;SDS011;70852;49.908;8.126;2023-09-08T00:36:39;8.68;;;4.32;;
81396;SDS011;70852;49.908;8.126;2023-09-08T00:39:09;7.90;;;4.22;;
81396;SDS011;70852;49.908;8.126;2023-09-08T00:41:34;7.68;;;4.70;;
81396;SDS011;70852;49.908;8.126;2023-09-08T00:44:02;5.43;;;3.85;;
81396;SDS011;70852;49.908;8.126;2023-09-08T00:46:28;6.50;;;4.03;;
81396;SDS011;70852;49.908;8.126;2023-09-08T00:48:55;6.75;;;4.32;;
81396;SDS011;70852;49.908;8.126;2023-09-08T00:51:23;8.52;;;4.60;;
81396;SDS011;70852;49.908;8.126;2023-09-08T00:53:50;7.15;;;4.63;;
81396;SDS011;70852;49.908;8.126;2023-09-08T00:56:16;6.95;;;4.50;;
81396;SDS011;70852;49.908;8.126;2023-09-08T00:58:41;6.88;;;3.90;;
81396;SDS011;70852;49.908;8.126;2023-09-08T01:01:11;7.60;;;4.57;;
81396;SDS011;70852;49.908;8.126;2023-09-08T01:03:37;7.20;;;4.30;;
81396;SDS011;70852;49.908;8.126;2023-09-08T01:06:05;8.30;;;4.70;;
81396;SDS011;70852;49.908;8.126;2023-09-08T01:08:34;8.50;;;4.65;;
81396;SDS011;70852;49.908;8.126;2023-09-08T01:11:02;8.10;;;4.38;;
81396;SDS011;70852;49.908;8.126;2023-09-08T01:13:28;10.95;;;4.53;;
81396;SDS011;70852;49.908;8.126;2023-09-08T01:15:58;8.43;;;4.57;;
81396;SDS011;70852;49.908;8.126;2023-09-08T01:18:23;7.63;;;4.20;;
81396;SDS011;70852;49.908;8.126;2023-09-08T01:21:03;8.57;;;4.53;;
81396;SDS011;70852;49.908;8.126;2023-09-08T01:26:46;6.70;;;4.10;;
81396;SDS011;70852;49.908;8.126;2023-09-08T01:29:13;8.10;;;4.93;;
81396;SDS011;70852;49.908;8.126;2023-09-08T01:31:44;8.30;;;4.63;;
81396;SDS011;70852;49.908;8.126;2023-09-08T01:34:11;8.18;;;4.47;;
81396;SDS011;70852;49.908;8.126;2023-09-08T01:36:36;8.05;;;4.35;;
81396;SDS011;70852;49.908;8.126;2023-09-08T01:39:02;8.35;;;4.75;;
81396;SDS011;70852;49.908;8.126;2023-09-08T01:41:28;8.30;;;4.38;;
81396;SDS011;70852;49.908;8.126;2023-09-08T01:43:53;8.35;;;4.53;;
81396;SDS011;70852;49.908;8.126;2023-09-08T01:46:19;8.85;;;4.78;;
81396;SDS011;70852;49.908;8.126;2023-09-08T01:48:45;9.15;;;4.47;;
81396;SDS011;70852;49.908;8.126;2023-09-08T01:51:12;8.10;;;4.78;;
81396;SDS011;70852;49.908;8.126;2023-09-08T01:53:42;8.30;;;4.85;;
81396;SDS011;70852;49.908;8.126;2023-09-08T01:56:10;7.47;;;4.68;;
81396;SDS011;70852;49.908;8.126;2023-09-08T01:58:35;9.32;;;5.07;;
81396;SDS011;70852;49.908;8.126;2023-09-08T02:01:02;7.90;;;4.97;;
81396;SDS011;70852;49.908;8.126;2023-09-08T02:03:33;10.15;;;4.93;;
81396;SDS011;70852;49.908;8.126;2023-09-08T02:06:00;8.93;;;4.57;;
81396;SDS011;70852;49.908;8.126;2023-09-08T02:08:26;7.70;;;4.53;;
81396;SDS011;70852;49.908;8.126;2023-09-08T02:10:53;8.90;;;4.40;;
81396;SDS011;70852;49.908;8.126;2023-09-08T02:13:19;7.78;;;4.55;;
81396;SDS011;70852;49.908;8.126;2023-09-08T02:15:46;10.45;;;4.88;;
81396;SDS011;70852;49.908;8.126;2023-09-08T02:18:12;7.20;;;4.57;;
81396;SDS011;70852;49.908;8.126;2023-09-08T02:20:38;8.10;;;4.45;;
81396;SDS011;70852;49.908;8.126;2023-09-08T02:23:04;8.60;;;5.10;;
81396;SDS011;70852;49.908;8.126;2023-09-08T02:25:33;8.82;;;4.80;;
81396;SDS011;70852;49.908;8.126;2023-09-08T02:27:58;9.63;;;5.78;;
81396;SDS011;70852;49.908;8.126;2023-09-08T02:30:29;9.18;;;5.10;;
81396;SDS011;70852;49.908;8.126;2023-09-08T02:32:54;8.00;;;4.93;;
81396;SDS011;70852;49.908;8.126;2023-09-08T02:35:23;9.32;;;4.88;;
81396;SDS011;70852;49.908;8.126;2023-09-08T02:37:51;7.80;;;4.40;;
81396;SDS011;70852;49.908;8.126;2023-09-08T02:40:17;6.97;;;4.40;;
81396;SDS011;70852;49.908;8.126;2023-09-08T02:42:44;7.10;;;4.57;;
81396;SDS011;70852;49.908;8.126;2023-09-08T02:45:14;9.13;;;4.65;;
81396;SDS011;70852;49.908;8.126;2023-09-08T02:47:41;10.63;;;5.25;;
81396;SDS011;70852;49.908;8.126;2023-09-08T02:50:09;8.13;;;5.30;;
81396;SDS011;70852;49.908;8.126;2023-09-08T02:52:34;7.40;;;4.53;;
81396;SDS011;70852;49.908;8.126;2023-09-08T02:55:00;8.23;;;4.32;;
81396;SDS011;70852;49.908;8.126;2023-09-08T02:57:26;8.82;;;4.82;;
81396;SDS011;70852;49.908;8.126;2023-09-08T02:59:54;6.68;;;4.18;;
81396;SDS011;70852;49.908;8.126;2023-09-08T03:04:49;11.93;;;5.35;;
81396;SDS011;70852;49.908;8.126;2023-09-08T03:07:17;8.10;;;4.63;;
81396;SDS011;70852;49.908;8.126;2023-09-08T03:09:43;7.68;;;4.70;;
81396;SDS011;70852;49.908;8.126;2023-09-08T03:12:10;9.88;;;4.35;;
81396;SDS011;70852;49.908;8.126;2023-09-08T03:14:43;8.63;;;4.55;;
81396;SDS011;70852;49.908;8.126;2023-09-08T03:17:08;8.43;;;4.85;;
81396;SDS011;70852;49.908;8.126;2023-09-08T03:19:36;7.90;;;4.28;;
81396;SDS011;70852;49.908;8.126;2023-09-08T03:22:06;7.75;;;4.65;;
81396;SDS011;70852;49.908;8.126;2023-09-08T03:24:31;6.60;;;4.22;;
81396;SDS011;70852;49.908;8.126;2023-09-08T03:26:57;9.18;;;4.65;;
81396;SDS011;70852;49.908;8.126;2023-09-08T03:29:24;7.93;;;4.22;;
81396;SDS011;70852;49.908;8.126;2023-09-08T03:31:50;10.57;;;4.68;;
81396;SDS011;70852;49.908;8.126;2023-09-08T03:34:17;8.70;;;4.65;;
81396;SDS011;70852;49.908;8.126;2023-09-08T03:36:45;9.75;;;4.85;;
81396;SDS011;70852;49.908;8.126;2023-09-08T03:39:13;8.35;;;4.47;;
81396;SDS011;70852;49.908;8.126;2023-09-08T03:41:41;6.90;;;4.38;;
81396;SDS011;70852;49.908;8.126;2023-09-08T03:44:06;8.35;;;4.40;;
81396;SDS011;70852;49.908;8.126;2023-09-08T03:46:34;8.43;;;4.50;;
81396;SDS011;70852;49.908;8.126;2023-09-08T03:48:59;7.40;;;4.20;;
81396;SDS011;70852;49.908;8.126;2023-09-08T03:51:27;7.88;;;4.75;;
81396;SDS011;70852;49.908;8.126;2023-09-08T03:53:53;8.07;;;4.55;;
81396;SDS011;70852;49.908;8.126;2023-09-08T03:56:18;9.05;;;4.45;;
81396;SDS011;70852;49.908;8.126;2023-09-08T03:58:45;6.97;;;4.22;;
81396;SDS011;70852;49.908;8.126;2023-09-08T04:01:10;9.50;;;4.28;;
81396;SDS011;70852;49.908;8.126;2023-09-08T04:03:36;8.50;;;4.13;;
81396;SDS011;70852;49.908;8.126;2023-09-08T04:06:01;7.32;;;4.10;;
81396;SDS011;70852;49.908;8.126;2023-09-08T04:08:28;8.18;;;4.65;;
81396;SDS011;70852;49.908;8.126;2023-09-08T04:10:54;7.85;;;4.32;;
81396;SDS011;70852;49.908;8.126;2023-09-08T04:13:24;8.25;;;4.45;;
81396;SDS011;70852;49.908;8.126;2023-09-08T04:15:49;7.90;;;4.72;;
81396;SDS011;70852;49.908;8.126;2023-09-08T04:18:14;6.80;;;4.10;;
81396;SDS011;70852;49.908;8.126;2023-09-08T04:20:39;8.30;;;4.15;;
81396;SDS011;70852;49.908;8.126;2023-09-08T04:23:05;9.70;;;5.03;;
81396;SDS011;70852;49.908;8.126;2023-09-08T04:25:30;8.88;;;4.38;;
81396;SDS011;70852;49.908;8.126;2023-09-08T04:27:58;8.70;;;4.50;;
81396;SDS011;70852;49.908;8.126;2023-09-08T04:30:29;7.72;;;4.57;;
81396;SDS011;70852;49.908;8.126;2023-09-08T04:32:57;8.68;;;4.55;;
81396;SDS011;70852;49.908;8.126;2023-09-08T04:35:23;9.30;;;4.40;;
81396;SDS011;70852;49.908;8.126;2023-09-08T04:37:50;11.55;;;4.63;;
81396;SDS011;70852;49.908;8.126;2023-09-08T04:40:16;7.18;;;4.18;;
81396;SDS011;70852;49.908;8.126;2023-09-08T04:42:43;7.20;;;4.25;;
81396;SDS011;70852;49.908;8.126;2023-09-08T04:45:11;6.20;;;3.90;;
81396;SDS011;70852;49.908;8.126;2023-09-08T04:47:39;7.75;;;4.53;;
81396;SDS011;70852;49.908;8.126;2023-09-08T04:50:04;6.40;;;3.95;;
81396;SDS011;70852;49.908;8.126;2023-09-08T04:52:30;8.18;;;4.25;;
81396;SDS011;70852;49.908;8.126;2023-09-08T04:54:55;7.93;;;4.50;;
81396;SDS011;70852;49.908;8.126;2023-09-08T04:57:20;7.85;;;4.28;;
81396;SDS011;70852;49.908;8.126;2023-09-08T04:59:46;7.78;;;4.13;;
81396;SDS011;70852;49.908;8.126;2023-09-08T05:02:16;7.85;;;4.45;;
81396;SDS011;70852;49.908;8.126;2023-09-08T05:04:44;7.68;;;4.18;;
81396;SDS011;70852;49.908;8.126;2023-09-08T05:07:10;7.30;;;4.35;;
81396;SDS011;70852;49.908;8.126;2023-09-08T05:09:38;7.28;;;3.85;;
81396;SDS011;70852;49.908;8.126;2023-09-08T05:12:08;7.55;;;4.28;;
81396;SDS011;70852;49.908;8.126;2023-09-08T05:14:36;6.88;;;4.13;;
81396;SDS011;70852;49.908;8.126;2023-09-08T05:17:06;7.15;;;3.70;;
81396;SDS011;70852;49.908;8.126;2023-09-08T05:19:31;6.45;;;3.78;;
81396;SDS011;70852;49.908;8.126;2023-09-08T05:21:56;7.50;;;3.78;;
81396;SDS011;70852;49.908;8.126;2023-09-08T05:24:24;6.88;;;4.15;;
81396;SDS011;70852;49.908;8.126;2023-09-08T05:26:51;7.65;;;4.13;;
81396;SDS011;70852;49.908;8.126;2023-09-08T05:29:19;7.47;;;4.28;;
81396;SDS011;70852;49.908;8.126;2023-09-08T05:31:44;7.10;;;4.38;;
81396;SDS011;70852;49.908;8.126;2023-09-08T05:34:10;7.97;;;4.40;;
81396;SDS011;70852;49.908;8.126;2023-09-08T05:36:35;7.30;;;4.70;;
81396;SDS011;70852;49.908;8.126;2023-09-08T05:39:03;7.93;;;4.47;;
81396;SDS011;70852;49.908;8.126;2023-09-08T05:41:31;6.63;;;4.25;;
81396;SDS011;70852;49.908;8.126;2023-09-08T05:43:58;8.57;;;4.90;;
81396;SDS011;70852;49.908;8.126;2023-09-08T05:46:24;7.50;;;4.22;;
81396;SDS011;70852;49.908;8.126;2023-09-08T05:48:49;9.43;;;4.63;;
81396;SDS011;70852;49.908;8.126;2023-09-08T05:51:14;7.00;;;4.13;;
81396;SDS011;70852;49.908;8.126;2023-09-08T05:53:40;9.18;;;4.50;;
81396;SDS011;70852;49.908;8.126;2023-09-08T05:56:08;8.15;;;4.43;;
81396;SDS011;70852;49.908;8.126;2023-09-08T05:58:36;7.85;;;4.00;;
81396;SDS011;70852;49.908;8.126;2023-09-08T06:01:01;7.43;;;4.53;;
81396;SDS011;70852;49.908;8.126;2023-09-08T06:03:28;7.68;;;4.50;;
81396;SDS011;70852;49.908;8.126;2023-09-08T06:05:53;8.60;;;4.72;;
81396;SDS011;70852;49.908;8.126;2023-09-08T06:08:23;7.68;;;4.82;;
81396;SDS011;70852;49.908;8.126;2023-09-08T06:10:53;9.07;;;4.68;;
81396;SDS011;70852;49.908;8.126;2023-09-08T06:13:19;9.85;;;4.57;;
81396;SDS011;70852;49.908;8.126;2023-09-08T06:15:44;7.50;;;4.20;;
81396;SDS011;70852;49.908;8.126;2023-09-08T06:18:12;7.85;;;4.40;;
81396;SDS011;70852;49.908;8.126;2023-09-08T06:20:43;12.43;;;5.45;;
81396;SDS011;70852;49.908;8.126;2023-09-08T06:23:14;7.72;;;5.00;;
81396;SDS011;70852;49.908;8.126;2023-09-08T06:25:45;7.95;;;4.88;;
81396;SDS011;70852;49.908;8.126;2023-09-08T06:28:15;8.90;;;5.22;;
81396;SDS011;70852;49.908;8.126;2023-09-08T06:30:43;9.75;;;5.35;;
81396;SDS011;70852;49.908;8.126;2023-09-08T06:33:11;12.23;;;5.70;;
81396;SDS011;70852;49.908;8.126;2023-09-08T06:35:41;9.23;;;5.60;;
81396;SDS011;70852;49.908;8.126;2023-09-08T06:38:11;9.48;;;5.65;;
81396;SDS011;70852;49.908;8.126;2023-09-08T06:40:37;10.52;;;5.80;;
81396;SDS011;70852;49.908;8.126;2023-09-08T06:43:04;8.88;;;5.53;;
81396;SDS011;70852;49.908;8.126;2023-09-08T06:45:30;8.18;;;5.22;;
81396;SDS011;70852;49.908;8.126;2023-09-08T06:47:58;10.15;;;5.10;;
81396;SDS011;70852;49.908;8.126;2023-09-08T06:52:56;6.47;;;4.43;;
81396;SDS011;70852;49.908;8.126;2023-09-08T06:55:21;10.65;;;4.85;;
81396;SDS011;70852;49.908;8.126;2023-09-08T06:57:46;6.75;;;4.88;;
81396;SDS011;70852;49.908;8.126;2023-09-08T07:00:12;8.05;;;5.30;;
81396;SDS011;70852;49.908;8.126;2023-09-08T07:02:38;7.40;;;4.57;;
81396;SDS011;70852;49.908;8.126;2023-09-08T07:05:04;9.65;;;4.30;;
81396;SDS011;70852;49.908;8.126;2023-09-08T07:07:35;7.45;;;5.07;;
81396;SDS011;70852;49.908;8.126;2023-09-08T07:10:05;6.63;;;4.15;;
81396;SDS011;70852;49.908;8.126;2023-09-08T07:12:31;7.65;;;4.90;;
81396;SDS011;70852;49.908;8.126;2023-09-08T07:14:59;7.72;;;4.50;;
81396;SDS011;70852;49.908;8.126;2023-09-08T07:17:29;7.03;;;4.68;;
81396;SDS011;70852;49.908;8.126;2023-09-08T07:19:56;6.40;;;5.03;;
81396;SDS011;70852;49.908;8.126;2023-09-08T07:22:22;6.38;;;4.25;;
81396;SDS011;70852;49.908;8.126;2023-09-08T07:24:51;5.57;;;4.07;;
81396;SDS011;70852;49.908;8.126;2023-09-08T07:27:17;7.97;;;4.57;;
81396;SDS011;70852;49.908;8.126;2023-09-08T07:29:43;6.55;;;4.65;;
81396;SDS011;70852;49.908;8.126;2023-09-08T07:32:12;7.63;;;4.28;;
81396;SDS011;70852;49.908;8.126;2023-09-08T07:34:38;6.65;;;4.65;;
81396;SDS011;70852;49.908;8.126;2023-09-08T07:37:06;6.30;;;4.78;;
81396;SDS011;70852;49.908;8.126;2023-09-08T07:39:31;7.60;;;4.28;;
81396;SDS011;70852;49.908;8.126;2023-09-08T07:41:57;7.68;;;4.97;;
81396;SDS011;70852;49.908;8.126;2023-09-08T07:44:27;9.98;;;5.38;;
81396;SDS011;70852;49.908;8.126;2023-09-08T07:46:56;8.00;;;4.90;;
81396;SDS011;70852;49.908;8.126;2023-09-08T07:49:21;5.70;;;4.70;;
81396;SDS011;70852;49.908;8.126;2023-09-08T07:51:48;7.68;;;4.75;;
81396;SDS011;70852;49.908;8.126;2023-09-08T07:54:13;7.35;;;4.68;;
81396;SDS011;70852;49.908;8.126;2023-09-08T07:56:38;7.90;;;5.38;;
81396;SDS011;70852;49.908;8.126;2023-09-08T07:59:08;8.80;;;5.00;;
81396;SDS011;70852;49.908;8.126;2023-09-08T08:01:33;6.43;;;4.80;;
81396;SDS011;70852;49.908;8.126;2023-09-08T08:03:59;9.43;;;4.75;;
81396;SDS011;70852;49.908;8.126;2023-09-08T08:06:28;5.90;;;5.05;;
81396;SDS011;70852;49.908;8.126;2023-09-08T08:08:56;8.98;;;4.70;;
81396;SDS011;70852;49.908;8.126;2023-09-08T08:11:24;7.63;;;5.95;;
81396;SDS011;70852;49.908;8.126;2023-09-08T08:13:53;6.43;;;4.70;;
81396;SDS011;70852;49.908;8.126;2023-09-08T08:16:18;8.25;;;5.18;;
81396;SDS011;70852;49.908;8.126;2023-09-08T08:18:46;8.23;;;5.28;;
81396;SDS011;70852;49.908;8.126;2023-09-08T08:21:14;5.70;;;4.85;;
81396;SDS011;70852;49.908;8.126;2023-09-08T08:23:41;7.20;;;6.50;;
81396;SDS011;70852;49.908;8.126;2023-09-08T08:26:07;5.85;;;5.13;;
81396;SDS011;70852;49.908;8.126;2023-09-08T08:28:34;7.78;;;5.15;;
81396;SDS011;70852;49.908;8.126;2023-09-08T08:31:02;6.05;;;5.28;;
81396;SDS011;70852;49.908;8.126;2023-09-08T08:33:28;7.85;;;6.15;;
81396;SDS011;70852;49.908;8.126;2023-09-08T08:35:55;7.18;;;5.82;;
81396;SDS011;70852;49.908;8.126;2023-09-08T08:38:25;8.02;;;6.80;;
81396;SDS011;70852;49.908;8.126;2023-09-08T08:40:53;6.75;;;5.95;;
81396;SDS011;70852;49.908;8.126;2023-09-08T08:43:21;6.57;;;5.88;;
81396;SDS011;70852;49.908;8.126;2023-09-08T08:45:47;8.00;;;5.63;;
81396;SDS011;70852;49.908;8.126;2023-09-08T08:48:18;6.03;;;5.22;;
81396;SDS011;70852;49.908;8.126;2023-09-08T08:50:45;6.65;;;5.82;;
81396;SDS011;70852;49.908;8.126;2023-09-08T08:53:14;7.25;;;6.55;;
81396;SDS011;70852;49.908;8.126;2023-09-08T08:55:44;7.47;;;6.72;;
81396;SDS011;70852;49.908;8.126;2023-09-08T08:58:11;8.63;;;7.65;;
81396;SDS011;70852;49.908;8.126;2023-09-08T09:00:40;7.53;;;6.80;;
81396;SDS011;70852;49.908;8.126;2023-09-08T09:03:05;10.73;;;9.70;;
81396;SDS011;70852;49.908;8.126;2023-09-08T09:05:33;7.78;;;6.55;;
81396;SDS011;70852;49.908;8.126;2023-09-08T09:08:04;7.97;;;7.07;;
81396;SDS011;70852;49.908;8.126;2023-09-08T09:10:33;8.70;;;7.82;;
81396;SDS011;70852;49.908;8.126;2023-09-08T09:12:58;7.97;;;7.18;;
81396;SDS011;70852;49.908;8.126;2023-09-08T09:15:51;10.65;;;9.73;;
81396;SDS011;70852;49.908;8.126;2023-09-08T09:18:16;8.45;;;7.57;;
81396;SDS011;70852;49.908;8.126;2023-09-08T09:20:53;9.77;;;8.90;;
81396;SDS011;70852;49.908;8.126;2023-09-08T09:23:27;10.57;;;9.82;;
81396;SDS011;70852;49.908;8.126;2023-09-08T09:25:54;8.40;;;7.60;;
81396;SDS011;70852;49.908;8.126;2023-09-08T09:28:19;9.10;;;8.38;;
81396;SDS011;70852;49.908;8.126;2023-09-08T09:30:48;10.88;;;9.98;;
81396;SDS011;70852;49.908;8.126;2023-09-08T09:33:16;7.70;;;7.00;;
81396;SDS011;70852;49.908;8.126;2023-09-08T09:38:10;9.82;;;8.93;;
81396;SDS011;70852;49.908;8.126;2023-09-08T09:40:36;8.20;;;7.50;;
81396;SDS011;70852;49.908;8.126;2023-09-08T09:43:04;8.60;;;7.70;;
81396;SDS011;70852;49.908;8.126;2023-09-08T09:45:33;9.85;;;9.05;;
81396;SDS011;70852;49.908;8.126;2023-09-08T09:48:05;10.45;;;9.57;;
81396;SDS011;70852;49.908;8.126;2023-09-08T09:50:33;11.05;;;10.15;;
81396;SDS011;70852;49.908;8.126;2023-09-08T09:53:08;11.25;;;10.32;;
81396;SDS011;70852;49.908;8.126;2023-09-08T09:55:37;13.10;;;12.02;;
81396;SDS011;70852;49.908;8.126;2023-09-08T09:58:06;10.98;;;10.07;;
81396;SDS011;70852;49.908;8.126;2023-09-08T10:00:33;12.50;;;11.50;;
81396;SDS011;70852;49.908;8.126;2023-09-08T10:03:02;10.27;;;9.38;;
81396;SDS011;70852;49.908;8.126;2023-09-08T10:05:31;10.68;;;9.88;;
81396;SDS011;70852;49.908;8.126;2023-09-08T10:07:59;13.90;;;13.02;;
81396;SDS011;70852;49.908;8.126;2023-09-08T10:10:25;11.63;;;10.77;;
81396;SDS011;70852;49.908;8.126;2023-09-08T10:12:52;13.13;;;12.05;;
81396;SDS011;70852;49.908;8.126;2023-09-08T10:15:22;14.15;;;13.25;;
81396;SDS011;70852;49.908;8.126;2023-09-08T10:17:54;10.85;;;10.13;;
81396;SDS011;70852;49.908;8.126;2023-09-08T10:20:24;11.82;;;10.82;;
81396;SDS011;70852;49.908;8.126;2023-09-08T10:23:00;12.32;;;11.32;;
81396;SDS011;70852;49.908;8.126;2023-09-08T10:25:28;10.68;;;9.80;;
81396;SDS011;70852;49.908;8.126;2023-09-08T10:28:00;11.43;;;10.60;;
81396;SDS011;70852;49.908;8.126;2023-09-08T10:30:30;10.40;;;9.63;;
81396;SDS011;70852;49.908;8.126;2023-09-08T10:32:56;12.23;;;11.23;;
81396;SDS011;70852;49.908;8.126;2023-09-08T10:35:24;11.23;;;10.43;;
81396;SDS011;70852;49.908;8.126;2023-09-08T10:38:15;10.32;;;9.57;;
81396;SDS011;70852;49.908;8.126;2023-09-08T10:46:20;11.52;;;10.63;;
81396;SDS011;70852;49.908;8.126;2023-09-08T10:48:49;11.02;;;9.93;;
81396;SDS011;70852;49.908;8.126;2023-09-08T10:51:18;8.15;;;7.35;;
81396;SDS011;70852;49.908;8.126;2023-09-08T10:53:48;9.25;;;8.02;;
81396;SDS011;70852;49.908;8.126;2023-09-08T10:56:16;7.88;;;6.55;;
81396;SDS011;70852;49.908;8.126;2023-09-08T10:58:48;7.50;;;6.90;;
81396;SDS011;70852;49.908;8.126;2023-09-08T11:01:19;7.95;;;7.32;;
81396;SDS011;70852;49.908;8.126;2023-09-08T11:03:52;7.28;;;6.63;;
81396;SDS011;70852;49.908;8.126;2023-09-08T11:06:20;8.32;;;6.78;;
81396;SDS011;70852;49.908;8.126;2023-09-08T11:08:55;6.55;;;5.78;;
81396;SDS011;70852;49.908;8.126;2023-09-08T11:11:23;6.68;;;6.07;;
81396;SDS011;70852;49.908;8.126;2023-09-08T11:13:51;6.78;;;5.57;;
81396;SDS011;70852;49.908;8.126;2023-09-08T11:16:22;5.80;;;5.28;;
81396;SDS011;70852;49.908;8.126;2023-09-08T11:18:54;5.97;;;5.25;;
81396;SDS011;70852;49.908;8.126;2023-09-08T11:21:22;6.28;;;4.03;;
81396;SDS011;70852;49.908;8.126;2023-09-08T11:23:50;6.03;;;5.22;;
81396;SDS011;70852;49.908;8.126;2023-09-08T11:26:18;5.25;;;4.45;;
81396;SDS011;70852;49.908;8.126;2023-09-08T11:28:43;5.63;;;4.75;;
81396;SDS011;70852;49.908;8.126;2023-09-08T11:31:14;5.97;;;4.57;;
81396;SDS011;70852;49.908;8.126;2023-09-08T11:33:39;5.97;;;4.32;;
81396;SDS011;70852;49.908;8.126;2023-09-08T11:36:11;6.35;;;4.32;;
81396;SDS011;70852;49.908;8.126;2023-09-08T11:41:06;5.20;;;4.00;;
81396;SDS011;70852;49.908;8.126;2023-09-08T11:43:31;4.30;;;3.63;;
81396;SDS011;70852;49.908;8.126;2023-09-08T11:45:59;5.28;;;3.72;;
81396;SDS011;70852;49.908;8.126;2023-09-08T11:48:27;5.43;;;3.63;;
81396;SDS011;70852;49.908;8.126;2023-09-08T11:50:53;6.68;;;3.33;;
81396;SDS011;70852;49.908;8.126;2023-09-08T11:53:21;6.47;;;3.45;;
81396;SDS011;70852;49.908;8.126;2023-09-08T11:55:50;6.03;;;3.30;;
81396;SDS011;70852;49.908;8.126;2023-09-08T11:58:16;5.60;;;3.70;;
81396;SDS011;70852;49.908;8.126;2023-09-08T12:00:43;5.03;;;3.58;;
81396;SDS011;70852;49.908;8.126;2023-09-08T12:03:13;5.68;;;3.67;;
81396;SDS011;70852;49.908;8.126;2023-09-08T12:05:44;6.47;;;4.25;;
81396;SDS011;70852;49.908;8.126;2023-09-08T12:08:15;6.82;;;3.45;;
81396;SDS011;70852;49.908;8.126;2023-09-08T12:10:41;4.85;;;3.63;;
81396;SDS011;70852;49.908;8.126;2023-09-08T12:13:11;5.47;;;3.85;;
81396;SDS011;70852;49.908;8.126;2023-09-08T12:15:41;6.30;;;3.67;;
81396;SDS011;70852;49.908;8.126;2023-09-08T12:18:12;6.50;;;3.50;;
81396;SDS011;70852;49.908;8.126;2023-09-08T12:20:41;4.72;;;3.20;;
81396;SDS011;70852;49.908;8.126;2023-09-08T12:23:15;4.63;;;3.55;;
81396;SDS011;70852;49.908;8.126;2023-09-08T12:25:45;4.93;;;3.72;;
81396;SDS011;70852;49.908;8.126;2023-09-08T12:28:17;5.43;;;3.63;;
81396;SDS011;70852;49.908;8.126;2023-09-08T12:30:44;4.20;;;3.20;;
81396;SDS011;70852;49.908;8.126;2023-09-08T12:33:12;6.35;;;4.03;;
81396;SDS011;70852;49.908;8.126;2023-09-08T12:35:44;4.55;;;3.53;;
81396;SDS011;70852;49.908;8.126;2023-09-08T12:38:10;5.78;;;3.58;;
81396;SDS011;70852;49.908;8.126;2023-09-08T12:40:36;6.45;;;3.97;;
81396;SDS011;70852;49.908;8.126;2023-09-08T12:43:05;4.95;;;3.45;;
81396;SDS011;70852;49.908;8.126;2023-09-08T12:45:35;6.03;;;4.65;;
81396;SDS011;70852;49.908;8.126;2023-09-08T12:48:01;4.78;;;3.50;;
81396;SDS011;70852;49.908;8.126;2023-09-08T12:50:31;6.68;;;4.03;;
81396;SDS011;70852;49.908;8.126;2023-09-08T12:52:57;5.57;;;5.00;;
81396;SDS011;70852;49.908;8.126;2023-09-08T12:55:22;5.97;;;3.40;;
81396;SDS011;70852;49.908;8.126;2023-09-08T12:57:49;5.63;;;3.75;;
81396;SDS011;70852;49.908;8.126;2023-09-08T13:00:21;5.55;;;3.75;;
81396;SDS011;70852;49.908;8.126;2023-09-08T13:02:48;7.38;;;5.15;;
81396;SDS011;70852;49.908;8.126;2023-09-08T13:05:14;5.78;;;3.78;;
81396;SDS011;70852;49.908;8.126;2023-09-08T13:07:39;4.45;;;3.60;;
81396;SDS011;70852;49.908;8.126;2023-09-08T13:10:07;6.10;;;3.22;;
81396;SDS011;70852;49.908;8.126;2023-09-08T13:12:37;5.43;;;3.60;;
81396;SDS011;70852;49.908;8.126;2023-09-08T13:15:05;6.18;;;3.80;;
81396;SDS011;70852;49.908;8.126;2023-09-08T13:17:31;6.75;;;3.80;;
81396;SDS011;70852;49.908;8.126;2023-09-08T13:19:56;5.88;;;3.90;;
81396;SDS011;70852;49.908;8.126;2023-09-08T13:22:24;4.60;;;3.83;;
81396;SDS011;70852;49.908;8.126;2023-09-08T13:24:54;5.45;;;3.80;;
81396;SDS011;70852;49.908;8.126;2023-09-08T13:27:22;4.70;;;3.38;;
81396;SDS011;70852;49.908;8.126;2023-09-08T13:29:47;4.72;;;3.30;;
81396;SDS011;70852;49.908;8.126;2023-09-08T13:32:16;5.65;;;3.42;;
81396;SDS011;70852;49.908;8.126;2023-09-08T13:34:44;5.65;;;3.67;;
81396;SDS011;70852;49.908;8.126;2023-09-08T13:37:09;4.53;;;3.15;;
81396;SDS011;70852;49.908;8.126;2023-09-08T13:39:36;4.47;;;3.50;;
81396;SDS011;70852;49.908;8.126;2023-09-08T13:42:02;4.97;;;4.10;;
81396;SDS011;70852;49.908;8.126;2023-09-08T13:44:30;5.00;;;3.42;;
81396;SDS011;70852;49.908;8.126;2023-09-08T13:46:58;5.35;;;3.55;;
81396;SDS011;70852;49.908;8.126;2023-09-08T13:49:25;5.40;;;3.72;;
81396;SDS011;70852;49.908;8.126;2023-09-08T13:51:54;5.50;;;3.55;;
81396;SDS011;70852;49.908;8.126;2023-09-08T13:54:19;6.60;;;3.40;;
81396;SDS011;70852;49.908;8.126;2023-09-08T13:56:56;5.65;;;3.75;;
81396;SDS011;70852;49.908;8.126;2023-09-08T13:59:24;6.05;;;4.25;;
81396;SDS011;70852;49.908;8.126;2023-09-08T14:01:49;5.55;;;3.10;;
81396;SDS011;70852;49.908;8.126;2023-09-08T14:04:18;4.75;;;3.40;;
81396;SDS011;70852;49.908;8.126;2023-09-08T14:06:46;9.27;;;4.00;;
81396;SDS011;70852;49.908;8.126;2023-09-08T14:09:16;5.45;;;3.40;;
81396;SDS011;70852;49.908;8.126;2023-09-08T14:11:44;4.85;;;3.45;;
81396;SDS011;70852;49.908;8.126;2023-09-08T14:14:09;5.00;;;3.92;;
81396;SDS011;70852;49.908;8.126;2023-09-08T14:16:34;6.35;;;3.63;;
81396;SDS011;70852;49.908;8.126;2023-09-08T14:19:02;6.50;;;3.67;;
81396;SDS011;70852;49.908;8.126;2023-09-08T14:21:27;5.25;;;4.25;;
81396;SDS011;70852;49.908;8.126;2023-09-08T14:23:58;5.80;;;3.40;;
81396;SDS011;70852;49.908;8.126;2023-09-08T14:26:25;4.63;;;3.20;;
81396;SDS011;70852;49.908;8.126;2023-09-08T14:28:50;5.72;;;3.72;;
81396;SDS011;70852;49.908;8.126;2023-09-08T14:31:18;5.63;;;3.92;;
81396;SDS011;70852;49.908;8.126;2023-09-08T14:33:43;5.50;;;3.75;;
81396;SDS011;70852;49.908;8.126;2023-09-08T14:36:16;5.25;;;3.65;;
81396;SDS011;70852;49.908;8.126;2023-09-08T14:38:44;5.32;;;4.40;;
81396;SDS011;70852;49.908;8.126;2023-09-08T14:41:10;5.70;;;3.58;;
81396;SDS011;70852;49.908;8.126;2023-09-08T14:43:35;6.90;;;4.47;;
81396;SDS011;70852;49.908;8.126;2023-09-08T14:46:00;4.25;;;3.35;;
81396;SDS011;70852;49.908;8.126;2023-09-08T14:48:28;6.38;;;3.60;;
81396;SDS011;70852;49.908;8.126;2023-09-08T14:50:54;4.72;;;3.60;;
81396;SDS011;70852;49.908;8.126;2023-09-08T14:53:19;4.43;;;3.35;;
81396;SDS011;70852;49.908;8.126;2023-09-08T14:55:48;6.40;;;3.88;;
81396;SDS011;70852;49.908;8.126;2023-09-08T14:58:16;5.05;;;3.58;;
81396;SDS011;70852;49.908;8.126;2023-09-08T15:00:41;5.80;;;3.63;;
81396;SDS011;70852;49.908;8.126;2023-09-08T15:03:09;8.02;;;3.80;;
81396;SDS011;70852;49.908;8.126;2023-09-08T15:05:40;6.32;;;3.78;;
81396;SDS011;70852;49.908;8.126;2023-09-08T15:08:06;6.55;;;3.67;;